Terminal Aerodrome Forecast
Issued by NWS

Home | Current Version | Previous Version | Text Only | Print | Product List | Glossary On
Versions: 1 2 3 4 5 6 7 8 9 10 11 12 13 14 15 16 17 18 19 20 21 22 23 24
914
FTUS41 KBUF 272336
TAFJHW
TAF
KJHW 272336Z 2800/2824 22007KT P6SM -SHRA BKN060
      TEMPO 2800/2802 3SM TSRA BKN035CB
     FM280300 26010KT P6SM OVC100
     FM280900 25008KT P6SM SCT016
     FM281300 24008KT P6SM SCT250
     FM281900 23011KT P6SM BKN080
      AMD LTD TO CLD VIS AND WIND=

USA.gov is the U.S. government's official web portal to all federal, state and local government web resources and services.